Time;durP1;ratioP1;P1;durP2;ratioP2;P2;SDS_P1;SDS_P2;PMS_P1;PMS_P2;Temp;Humidity;BMP_temperature;BMP_pressure;BME280_temperature;BME280_humidity;BME280_pressure;Samples;Min_cycle;Max_cycle;Signal;HPM_P1;HPM_P2
2024/03/23 00:02:09;;;;;;;6.53;3.63;;;;;;;17.03;52.09;98515.28;5091700;28;20024;-46
2024/03/23 00:04:35;;;;;;;10.43;4.00;;;;;;;17.11;52.57;98517.50;5091717;28;20020;-46
2024/03/23 00:07:02;;;;;;;6.60;3.92;;;;;;;17.26;52.35;98516.06;5090331;28;20111;-46
2024/03/23 00:09:29;;;;;;;8.60;4.00;;;;;;;17.38;51.70;98524.69;5091621;28;20397;-46
2024/03/23 00:11:55;;;;;;;6.30;4.20;;;;;;;17.36;51.92;98527.63;5091607;28;20027;-47
2024/03/23 00:14:22;;;;;;;9.13;4.30;;;;;;;17.34;52.07;98519.13;5091627;28;20019;-47
2024/03/23 00:16:49;;;;;;;7.30;4.60;;;;;;;17.42;52.02;98515.19;5090263;28;20402;-47
2024/03/23 00:19:15;;;;;;;8.65;4.50;;;;;;;17.46;51.91;98512.84;5091564;28;20134;-46
2024/03/23 00:21:42;;;;;;;7.43;4.72;;;;;;;17.47;51.81;98515.25;5073997;28;20089;-46
2024/03/23 00:24:10;;;;;;;9.60;5.20;;;;;;;17.46;51.40;98511.00;5090537;28;20405;-46
2024/03/23 00:26:37;;;;;;;8.00;4.57;;;;;;;17.37;51.25;98510.63;5092865;28;20028;-46
2024/03/23 00:29:03;;;;;;;8.20;4.20;;;;;;;17.27;51.39;98515.84;5095284;28;20027;-46
2024/03/23 00:31:30;;;;;;;12.93;4.93;;;;;;;17.22;51.42;98507.00;5095420;28;20107;-46
2024/03/23 00:33:56;;;;;;;6.47;4.22;;;;;;;17.20;51.93;98517.84;5094125;28;20028;-46
2024/03/23 00:36:24;;;;;;;12.35;5.22;;;;;;;17.23;52.79;98511.28;5094368;28;20024;-46
2024/03/23 00:38:50;;;;;;;9.88;4.75;;;;;;;17.48;52.05;98508.09;5094013;28;20028;-46
2024/03/23 00:41:17;;;;;;;7.18;4.47;;;;;;;17.52;51.89;98503.88;5093860;28;20047;-46
2024/03/23 00:43:44;;;;;;;5.32;4.03;;;;;;;17.53;51.87;98502.84;5095228;28;20056;-46
2024/03/23 00:46:11;;;;;;;9.25;4.35;;;;;;;17.48;51.59;98492.97;5095027;28;20115;-46
2024/03/23 00:48:37;;;;;;;6.80;4.35;;;;;;;17.40;51.61;98489.97;5095087;28;20023;-46
2024/03/23 00:51:04;;;;;;;8.85;5.25;;;;;;;17.34;51.45;98492.59;5094927;28;20421;-46
2024/03/23 00:53:31;;;;;;;11.52;5.00;;;;;;;17.25;52.25;98493.28;5094981;28;20406;-46
2024/03/23 00:55:57;;;;;;;8.82;5.10;;;;;;;17.28;51.87;98490.09;5093886;28;20039;-46
2024/03/23 00:58:23;;;;;;;7.82;4.32;;;;;;;17.33;52.27;98487.53;5093806;28;20028;-46
2024/03/23 01:00:48;;;;;;;8.43;4.53;;;;;;;17.32;51.76;98491.22;5094888;28;20394;-46
2024/03/23 01:03:17;;;;;;;6.75;4.47;;;;;;;17.30;51.54;98490.66;5094826;28;20051;-46
2024/03/23 01:05:43;;;;;;;10.50;5.53;;;;;;;17.19;51.87;98497.72;5093484;28;20024;-46
2024/03/23 01:08:09;;;;;;;8.93;5.97;;;;;;;17.10;51.74;98494.69;5094752;28;20051;-46
2024/03/23 01:10:34;;;;;;;8.43;4.65;;;;;;;16.94;51.94;98492.88;5093226;28;20119;-46
2024/03/23 01:13:00;;;;;;;10.23;4.32;;;;;;;17.10;52.54;98492.06;5093301;28;20047;-46
2024/03/23 01:15:25;;;;;;;7.22;5.38;;;;;;;17.31;51.93;98492.28;5094784;28;20032;-46
2024/03/23 01:17:51;;;;;;;6.90;4.53;;;;;;;17.45;51.28;98487.38;5093559;28;20031;-46
2024/03/23 01:20:17;;;;;;;8.15;4.25;;;;;;;17.51;50.90;98491.69;5094397;28;20514;-46
2024/03/23 01:22:43;;;;;;;9.50;5.28;;;;;;;17.47;50.61;98488.72;5093097;28;20027;-46
2024/03/23 01:25:08;;;;;;;8.00;5.10;;;;;;;17.39;50.70;98485.72;5076237;28;20048;-46
2024/03/23 01:27:34;;;;;;;14.00;7.10;;;;;;;17.32;50.66;98480.59;5094398;28;20024;-46
2024/03/23 01:30:00;;;;;;;14.02;5.43;;;;;;;17.34;50.92;98470.53;5092836;28;20050;-47
2024/03/23 01:32:25;;;;;;;10.10;4.55;;;;;;;17.28;51.17;98474.97;5094281;28;20024;-46
2024/03/23 01:34:51;;;;;;;10.95;5.15;;;;;;;17.32;51.24;98473.44;5093267;28;20489;-47
2024/03/23 01:37:17;;;;;;;12.25;6.07;;;;;;;17.46;51.72;98479.16;5093052;28;20024;-46
2024/03/23 01:39:42;;;;;;;9.27;5.32;;;;;;;17.59;50.63;98483.28;5094185;28;20027;-46
2024/03/23 01:42:08;;;;;;;7.78;4.20;;;;;;;17.66;50.37;98470.59;5094055;28;20023;-46
2024/03/23 01:44:34;;;;;;;10.57;4.32;;;;;;;17.73;49.98;98475.72;5094088;28;20482;-46
2024/03/23 01:46:59;;;;;;;8.73;4.20;;;;;;;17.70;49.69;98469.03;5094015;28;20020;-46
2024/03/23 01:49:25;;;;;;;6.97;4.35;;;;;;;17.76;49.58;98483.94;5092955;28;20036;-46
2024/03/23 01:51:51;;;;;;;9.20;5.15;;;;;;;17.84;49.57;98474.75;5092759;28;20031;-46
2024/03/23 01:54:17;;;;;;;11.02;6.30;;;;;;;17.97;49.40;98468.25;5093862;28;20046;-46
2024/03/23 01:56:43;;;;;;;7.65;4.75;;;;;;;18.08;49.21;98467.25;5093763;28;20034;-46
2024/03/23 01:59:09;;;;;;;8.15;4.85;;;;;;;18.20;49.25;98472.38;5093735;28;20020;-47
2024/03/23 02:01:37;;;;;;;8.63;4.90;;;;;;;18.32;50.29;98465.03;5093694;28;20031;-46
2024/03/23 02:04:03;;;;;;;9.07;5.53;;;;;;;18.51;49.53;98472.56;5093663;28;20026;-46
2024/03/23 02:06:29;;;;;;;12.57;4.65;;;;;;;18.53;48.34;98471.28;5093600;28;20102;-46
2024/03/23 02:08:55;;;;;;;8.98;5.13;;;;;;;18.62;48.46;98460.16;5092309;28;20044;-47
2024/03/23 02:11:21;;;;;;;10.38;5.32;;;;;;;18.69;47.92;98468.69;5093415;28;20027;-46
2024/03/23 02:13:46;;;;;;;8.75;4.53;;;;;;;18.69;47.66;98466.84;5093461;28;20102;-46
2024/03/23 02:16:13;;;;;;;11.50;5.00;;;;;;;18.76;47.17;98470.03;5092130;28;20024;-46
2024/03/23 02:18:39;;;;;;;6.07;3.90;;;;;;;18.70;46.85;98464.97;5092085;28;20094;-46
2024/03/23 02:21:05;;;;;;;10.20;5.50;;;;;;;18.63;46.61;98469.72;5093318;28;20020;-46
2024/03/23 02:23:31;;;;;;;7.25;4.93;;;;;;;18.37;46.57;98469.56;5092002;28;20034;-46
2024/03/23 02:25:57;;;;;;;8.02;4.63;;;;;;;17.98;47.16;98469.03;5091890;28;20434;-46
2024/03/23 02:28:23;;;;;;;16.38;9.60;;;;;;;17.81;47.77;98474.41;5091877;28;20055;-46
2024/03/23 02:30:49;;;;;;;12.27;8.88;;;;;;;17.72;48.50;98468.78;5092829;28;20063;-46
2024/03/23 02:33:16;;;;;;;18.00;11.52;;;;;;;17.85;48.32;98471.06;5092063;28;20027;-46
2024/03/23 02:35:41;;;;;;;10.27;5.53;;;;;;;18.13;48.40;98469.94;5093235;28;20069;-46
2024/03/23 02:38:07;;;;;;;8.50;5.70;;;;;;;18.31;48.31;98468.75;5091690;28;20024;-46
2024/03/23 02:40:33;;;;;;;13.00;8.82;;;;;;;18.45;47.83;98469.09;5092919;28;20390;-46
2024/03/23 02:42:58;;;;;;;12.90;8.98;;;;;;;18.53;47.59;98470.44;5091559;28;20050;-46
2024/03/23 02:45:24;;;;;;;13.35;9.70;;;;;;;18.57;47.11;98460.91;5091534;28;20035;-46
2024/03/23 02:47:53;;;;;;;11.05;7.63;;;;;;;18.52;47.15;98456.38;5092846;28;20024;-46
2024/03/23 02:50:20;;;;;;;8.88;5.65;;;;;;;18.49;47.19;98467.53;5092660;28;20481;-46
2024/03/23 02:52:46;;;;;;;17.55;10.20;;;;;;;18.46;47.39;98462.72;5092748;28;20055;-46
2024/03/23 02:55:11;;;;;;;14.80;12.95;;;;;;;18.37;47.12;98466.91;5108344;28;20028;-46
2024/03/23 02:57:37;;;;;;;7.53;5.57;;;;;;;18.33;47.52;98471.13;5091329;28;20031;-46
2024/03/23 03:00:05;;;;;;;9.00;4.72;;;;;;;18.39;47.14;98474.63;5091517;28;20490;-46
2024/03/23 03:02:31;;;;;;;12.30;5.15;;;;;;;18.24;46.99;98478.00;5092803;28;20024;-46
2024/03/23 03:04:56;;;;;;;6.75;4.50;;;;;;;18.19;47.39;98478.75;5092487;28;20028;-46
2024/03/23 03:07:22;;;;;;;10.18;5.20;;;;;;;18.27;47.05;98477.47;5092454;28;20030;-46
2024/03/23 03:09:48;;;;;;;9.00;5.00;;;;;;;18.00;46.92;98475.69;5091036;28;20125;-46
2024/03/23 03:12:13;;;;;;;7.72;5.22;;;;;;;17.76;48.02;98472.53;5092363;28;20020;-46
2024/03/23 03:14:39;;;;;;;9.05;5.18;;;;;;;17.83;48.52;98469.66;5091047;28;20113;-46
2024/03/23 03:17:04;;;;;;;8.27;5.68;;;;;;;17.90;48.38;98463.13;5090957;28;20031;-46
2024/03/23 03:19:30;;;;;;;8.77;5.53;;;;;;;17.90;48.33;98465.78;5091279;28;20040;-46
2024/03/23 03:21:56;;;;;;;8.48;4.75;;;;;;;17.94;48.70;98468.72;5092206;28;20024;-46
2024/03/23 03:24:21;;;;;;;7.72;5.45;;;;;;;17.90;48.30;98468.44;5092209;28;20108;-46
2024/03/23 03:26:47;;;;;;;9.40;5.25;;;;;;;17.82;48.49;98465.41;5091100;28;20134;-46
2024/03/23 03:29:13;;;;;;;6.68;5.32;;;;;;;17.73;48.27;98463.22;5073824;28;20032;-46
2024/03/23 03:31:39;;;;;;;9.23;5.13;;;;;;;17.71;48.39;98464.53;5092054;28;20035;-46
2024/03/23 03:34:05;;;;;;;7.95;5.43;;;;;;;17.74;48.92;98470.13;5092066;28;20031;-46
2024/03/23 03:36:31;;;;;;;7.15;4.97;;;;;;;17.67;48.79;98468.75;5092038;28;20035;-46
2024/03/23 03:38:56;;;;;;;9.90;5.68;;;;;;;17.70;49.16;98471.69;5092059;28;20020;-46
2024/03/23 03:41:22;;;;;;;8.90;5.57;;;;;;;17.88;49.57;98478.50;5091996;28;20461;-46
2024/03/23 03:43:48;;;;;;;11.68;5.25;;;;;;;18.06;49.06;98476.53;5091949;28;20027;-46
2024/03/23 03:46:13;;;;;;;10.77;6.63;;;;;;;17.83;48.25;98497.06;5091905;28;20024;-46
2024/03/23 03:48:39;;;;;;;8.43;5.15;;;;;;;17.51;48.90;98481.88;5090901;28;20490;-46
2024/03/23 03:51:05;;;;;;;10.88;5.88;;;;;;;17.49;49.29;98499.09;5090457;28;20486;-46
2024/03/23 03:53:31;;;;;;;8.93;4.50;;;;;;;17.44;49.64;98501.69;5090539;28;20024;-46
2024/03/23 03:56:01;;;;;;;8.57;4.93;;;;;;;17.43;49.94;98508.84;5090545;28;20031;-46
2024/03/23 03:58:27;;;;;;;5.32;4.82;;;;;;;17.40;50.00;98511.97;5091840;28;20394;-46
2024/03/23 04:00:53;;;;;;;18.55;5.15;;;;;;;17.44;49.90;98505.13;5093079;28;20016;-46
2024/03/23 04:03:19;;;;;;;8.77;5.07;;;;;;;17.28;50.31;98509.47;5094663;28;20085;-46
2024/03/23 04:05:56;;;;;;;15.40;7.10;;;;;;;17.04;54.23;98519.53;5094662;28;20115;-46
2024/03/23 04:08:23;;;;;;;10.98;5.65;;;;;;;16.81;54.32;98530.34;5096025;28;20028;-46
2024/03/23 04:10:49;;;;;;;13.18;5.65;;;;;;;16.64;55.02;98536.47;5094485;28;20050;-46
2024/03/23 04:13:16;;;;;;;7.15;4.75;;;;;;;16.58;55.86;98540.09;5095859;28;20481;-46
2024/03/23 04:15:42;;;;;;;7.00;5.03;;;;;;;16.40;55.29;98535.88;5095778;28;20099;-46
2024/03/23 04:18:08;;;;;;;8.18;5.20;;;;;;;16.20;55.88;98541.63;5094429;28;20603;-46
2024/03/23 04:20:33;;;;;;;9.20;4.88;;;;;;;16.14;56.14;98535.47;5094624;28;20032;-46
2024/03/23 04:23:00;;;;;;;11.93;7.82;;;;;;;16.01;56.52;98529.66;5094322;28;20020;-46
2024/03/23 04:25:25;;;;;;;8.32;5.20;;;;;;;16.05;56.58;98520.19;5094258;28;20031;-46
2024/03/23 04:27:51;;;;;;;8.32;5.15;;;;;;;15.98;57.25;98520.38;5095525;28;20035;-46
2024/03/23 04:30:17;;;;;;;11.77;5.78;;;;;;;15.75;57.33;98521.28;5093937;28;20136;-46
2024/03/23 04:32:43;;;;;;;8.60;4.97;;;;;;;15.72;57.83;98532.31;5094199;28;20031;-46
2024/03/23 04:35:11;;;;;;;13.40;6.25;;;;;;;15.81;58.00;98535.41;5095335;28;20027;-46
2024/03/23 04:37:38;;;;;;;10.52;5.47;;;;;;;15.87;57.85;98529.97;5095375;28;20024;-46
2024/03/23 04:40:04;;;;;;;13.18;6.35;;;;;;;15.86;58.49;98543.44;5094049;28;20100;-48
2024/03/23 04:42:31;;;;;;;7.80;5.40;;;;;;;15.83;58.27;98543.91;5095341;28;20153;-48
2024/03/23 04:44:56;;;;;;;10.70;6.03;;;;;;;15.83;58.53;98557.16;5093873;28;20036;-48
2024/03/23 04:47:22;;;;;;;8.40;5.30;;;;;;;15.85;58.62;98552.41;5095162;28;20379;-48
2024/03/23 04:49:48;;;;;;;9.63;5.43;;;;;;;16.02;58.73;98555.91;5095054;28;20032;-46
2024/03/23 04:52:15;;;;;;;13.30;5.80;;;;;;;16.28;58.45;98551.00;5093804;28;20028;-46
2024/03/23 04:54:41;;;;;;;9.55;6.15;;;;;;;16.33;58.80;98543.16;5093743;28;20501;-46
2024/03/23 04:57:07;;;;;;;10.05;6.20;;;;;;;16.51;58.66;98537.59;5093645;28;20042;-46
2024/03/23 04:59:33;;;;;;;10.35;6.10;;;;;;;16.69;58.64;98556.94;5093617;28;20032;-46
2024/03/23 05:01:59;;;;;;;9.20;5.35;;;;;;;16.80;57.53;98574.56;5094855;28;20441;-46
2024/03/23 05:04:25;;;;;;;8.13;4.55;;;;;;;16.73;57.45;98582.72;5094792;28;20501;-46
2024/03/23 05:06:51;;;;;;;8.55;5.50;;;;;;;16.70;57.53;98587.69;5093440;28;20115;-46
2024/03/23 05:09:16;;;;;;;10.00;5.53;;;;;;;16.64;58.00;98593.94;5093443;28;20509;-46
2024/03/23 05:11:42;;;;;;;9.75;6.13;;;;;;;16.80;57.78;98600.28;5094598;28;20028;-46
2024/03/23 05:14:08;;;;;;;10.43;6.97;;;;;;;16.74;57.85;98594.09;5094968;28;20027;-46
2024/03/23 05:16:34;;;;;;;12.32;5.55;;;;;;;16.54;58.52;98602.53;5094681;28;20065;-46
2024/03/23 05:19:00;;;;;;;14.82;7.32;;;;;;;16.64;59.24;98613.31;5094629;28;20028;-46
2024/03/23 05:21:28;;;;;;;7.53;6.13;;;;;;;16.87;58.61;98624.81;5094484;28;20414;-46
2024/03/23 05:23:54;;;;;;;11.10;6.13;;;;;;;16.89;58.75;98633.34;5094542;28;20020;-46
2024/03/23 05:26:20;;;;;;;14.07;6.63;;;;;;;17.11;58.38;98638.69;5093222;28;20564;-46
2024/03/23 05:28:46;;;;;;;11.32;7.57;;;;;;;17.34;58.24;98645.63;5093329;28;20104;-46
2024/03/23 05:31:11;;;;;;;8.50;6.43;;;;;;;17.56;57.69;98653.59;5094134;28;20506;-46
2024/03/23 05:33:40;;;;;;;8.82;6.03;;;;;;;17.84;57.20;98657.94;5093336;28;20074;-46
2024/03/23 05:36:11;;;;;;;11.50;6.30;;;;;;;18.01;56.73;98665.84;5092930;28;20547;-46
2024/03/23 05:38:36;;;;;;;11.35;6.50;;;;;;;18.09;55.83;98675.19;5094313;28;20073;-46
2024/03/23 05:41:02;;;;;;;10.50;6.00;;;;;;;17.93;56.60;98683.00;5093113;28;20024;-46
2024/03/23 05:43:28;;;;;;;12.05;6.30;;;;;;;18.01;56.37;98683.59;5094126;28;20432;-46
2024/03/23 05:45:59;;;;;;;13.13;6.55;;;;;;;18.01;56.04;98686.25;5092771;28;20115;-46
2024/03/23 05:48:26;;;;;;;9.35;6.93;;;;;;;18.05;56.08;98690.03;5092828;28;20031;-46
2024/03/23 05:50:52;;;;;;;12.55;6.82;;;;;;;18.13;55.95;98687.75;5093922;28;20020;-47
2024/03/23 05:53:20;;;;;;;11.75;6.13;;;;;;;18.22;55.46;98693.41;5093957;28;20028;-46
2024/03/23 05:55:47;;;;;;;9.23;6.68;;;;;;;18.28;54.81;98697.72;5093807;28;20032;-46
2024/03/23 05:58:15;;;;;;;11.77;5.80;;;;;;;18.33;54.29;98699.63;5093795;28;20032;-46
2024/03/23 06:00:42;;;;;;;9.40;6.13;;;;;;;18.33;53.08;98710.25;5093715;28;20069;-46
2024/03/23 06:03:08;;;;;;;13.52;7.55;;;;;;;18.06;54.08;98710.22;5092431;28;20115;-46
2024/03/23 06:05:34;;;;;;;11.77;7.00;;;;;;;17.85;54.72;98720.63;5092387;28;20058;-46
2024/03/23 06:07:59;;;;;;;12.27;6.45;;;;;;;17.89;54.60;98736.88;5092554;28;20501;-46
2024/03/23 06:10:25;;;;;;;8.75;5.55;;;;;;;17.95;53.99;98746.50;5093534;28;20030;-46
2024/03/23 06:12:52;;;;;;;11.07;5.20;;;;;;;18.06;53.45;98753.53;5093516;28;20047;-46
2024/03/23 06:15:20;;;;;;;11.45;6.03;;;;;;;18.10;53.45;98759.94;5093388;28;20065;-46
2024/03/23 06:17:46;;;;;;;9.82;6.20;;;;;;;18.15;53.43;98757.34;5058641;28;20409;-46
2024/03/23 06:20:12;;;;;;;11.05;5.78;;;;;;;18.25;52.41;98756.69;5093389;28;20020;-46
2024/03/23 06:22:38;;;;;;;8.13;4.95;;;;;;;18.36;50.99;98760.25;5093377;28;20062;-46
2024/03/23 06:25:05;;;;;;;7.70;6.00;;;;;;;18.43;50.11;98763.53;5092711;28;20039;-46
2024/03/23 06:27:32;;;;;;;7.53;5.07;;;;;;;18.59;49.22;98767.13;5093261;28;20101;-46
2024/03/23 06:30:00;;;;;;;7.90;4.60;;;;;;;18.74;47.83;98766.47;5091507;28;20055;-46
2024/03/23 06:32:28;;;;;;;10.65;5.28;;;;;;;19.65;46.20;98772.78;5091840;28;20066;-46
2024/03/23 06:34:55;;;;;;;6.20;4.95;;;;;;;19.93;44.61;98780.41;5093103;28;20099;-46
2024/03/23 06:37:20;;;;;;;6.53;4.63;;;;;;;19.71;44.57;98785.88;5093075;28;20032;-46
2024/03/23 06:39:46;;;;;;;5.95;4.50;;;;;;;19.49;44.78;98790.53;5093026;28;20032;-46
2024/03/23 06:42:12;;;;;;;6.82;3.72;;;;;;;19.36;44.69;98794.44;5092920;28;20027;-46
2024/03/23 06:44:39;;;;;;;4.70;4.20;;;;;;;19.36;44.12;98787.25;5091686;28;20059;-46
2024/03/23 06:47:05;;;;;;;4.72;4.28;;;;;;;19.53;43.61;98803.06;5092828;28;20081;-46
2024/03/23 06:49:31;;;;;;;19.48;17.65;;;;;;;19.74;43.13;98805.91;5091521;28;20024;-46
2024/03/23 06:51:57;;;;;;;8.63;6.95;;;;;;;19.94;42.85;98799.84;5092611;28;20107;-46
2024/03/23 06:54:25;;;;;;;8.00;5.40;;;;;;;20.26;41.99;98814.94;5091458;28;20046;-46
2024/03/23 06:56:50;;;;;;;10.25;5.03;;;;;;;20.33;41.53;98818.16;5091323;28;20114;-46
2024/03/23 06:59:16;;;;;;;5.90;4.78;;;;;;;20.42;41.87;98824.59;5091360;28;20127;-46
2024/03/23 07:01:42;;;;;;;7.80;5.07;;;;;;;20.48;41.56;98828.91;5091270;28;20114;-46
2024/03/23 07:04:08;;;;;;;5.35;4.20;;;;;;;20.33;41.38;98836.81;5092601;28;20399;-46
2024/03/23 07:06:33;;;;;;;7.22;4.07;;;;;;;20.20;41.63;98850.63;5091156;28;20031;-46
2024/03/23 07:08:59;;;;;;;6.30;4.30;;;;;;;20.23;41.67;98844.78;5091143;28;20071;-46
2024/03/23 07:11:25;;;;;;;5.75;3.58;;;;;;;20.18;41.56;98855.41;5092363;28;20077;-46
2024/03/23 07:13:52;;;;;;;6.93;2.22;;;;;;;20.03;40.38;98866.78;5091059;28;20039;-46
2024/03/23 07:16:18;;;;;;;4.07;1.60;;;;;;;19.82;40.64;98873.84;5091045;28;20024;-46
2024/03/23 07:18:44;;;;;;;3.42;1.40;;;;;;;19.53;40.40;98893.56;5092376;28;20073;-46
2024/03/23 07:21:10;;;;;;;4.15;1.33;;;;;;;19.06;40.64;98918.16;5090980;28;20398;-45
2024/03/23 07:23:35;;;;;;;2.80;0.93;;;;;;;18.70;41.55;98919.56;5092322;28;20447;-46
2024/03/23 07:26:07;;;;;;;1.77;0.82;;;;;;;18.48;41.34;98919.56;5090908;28;20031;-46
2024/03/23 07:28:34;;;;;;;4.38;1.15;;;;;;;18.03;41.62;98921.34;5092267;28;20374;-51
2024/03/23 07:31:14;;;;;;;5.13;0.90;;;;;;;17.41;42.91;98932.00;5091894;28;20039;-45
2024/03/23 07:33:48;;;;;;;6.95;0.75;;;;;;;16.97;44.08;98928.00;5090847;28;20024;-45
2024/03/23 07:36:14;;;;;;;4.50;0.80;;;;;;;16.73;44.83;98945.78;5089909;28;20020;-45
2024/03/23 07:38:41;;;;;;;7.38;1.70;;;;;;;16.66;45.26;98947.78;5092092;28;20048;-45
2024/03/23 07:41:14;;;;;;;10.57;1.10;;;;;;;16.66;45.40;98957.53;5091929;28;20050;-45
2024/03/23 07:43:42;;;;;;;4.85;1.00;;;;;;;16.55;45.08;98962.63;5091973;28;20085;-45
2024/03/23 07:46:08;;;;;;;5.55;0.80;;;;;;;16.49;45.74;98973.38;5090701;28;20565;-46
2024/03/23 07:48:33;;;;;;;1.83;0.90;;;;;;;16.61;45.93;98992.69;5090661;28;20032;-46
2024/03/23 07:51:04;;;;;;;4.63;1.27;;;;;;;16.92;44.41;98990.72;5090498;28;20055;-46
2024/03/23 07:53:31;;;;;;;4.18;1.00;;;;;;;17.15;43.46;98998.63;5090630;28;20020;-46
2024/03/23 07:56:04;;;;;;;6.05;1.80;;;;;;;16.83;42.03;98997.44;5090692;28;20056;-45
2024/03/23 07:58:30;;;;;;;11.18;1.48;;;;;;;16.30;41.38;98999.97;5091846;28;20497;-46
2024/03/23 08:01:10;;;;;;;10.15;1.48;;;;;;;15.91;41.90;99010.16;5073761;28;20028;-45
2024/03/23 08:03:37;;;;;;;13.10;1.90;;;;;;;15.55;41.85;99033.03;5090601;28;20161;-47
2024/03/23 08:06:16;;;;;;;11.27;2.40;;;;;;;15.44;42.38;99039.06;5091817;28;20016;-47
2024/03/23 08:08:44;;;;;;;10.00;2.03;;;;;;;15.53;41.31;99029.81;5091775;28;20028;-47
2024/03/23 08:11:10;;;;;;;11.13;4.07;;;;;;;15.50;40.47;99032.09;5090283;28;20024;-47
2024/03/23 08:13:38;;;;;;;8.30;2.55;;;;;;;15.26;39.39;99016.09;5090394;28;20078;-48
2024/03/23 08:16:04;;;;;;;21.50;2.55;;;;;;;15.11;40.12;99058.81;5091669;28;20478;-48
2024/03/23 08:18:31;;;;;;;10.15;2.90;;;;;;;15.34;39.25;99071.34;5091685;28;20379;-48
2024/03/23 08:21:04;;;;;;;15.35;2.15;;;;;;;15.49;38.11;99078.91;5091595;28;20031;-47
2024/03/23 08:23:33;;;;;;;7.97;1.77;;;;;;;15.71;37.82;99083.69;5091557;28;20034;-48
2024/03/23 08:26:00;;;;;;;9.05;2.47;;;;;;;16.45;36.32;99086.94;5091566;28;20020;-48
2024/03/23 08:28:27;;;;;;;10.63;2.03;;;;;;;16.92;35.31;99079.03;5090272;28;20031;-48
2024/03/23 08:30:53;;;;;;;8.45;1.83;;;;;;;17.07;34.44;99075.09;5091276;28;20048;-48
2024/03/23 08:33:19;;;;;;;8.82;1.58;;;;;;;16.65;33.80;99086.59;5090334;28;20020;-47
2024/03/23 08:36:01;;;;;;;10.25;2.00;;;;;;;16.31;35.12;99101.41;5090203;28;20031;-47
2024/03/23 08:38:28;;;;;;;8.45;1.65;;;;;;;16.24;33.37;99084.81;5090151;28;20495;-47
2024/03/23 08:41:04;;;;;;;11.57;2.08;;;;;;;15.76;34.92;99107.69;5090174;28;20023;-48
2024/03/23 08:43:39;;;;;;;7.47;1.90;;;;;;;15.89;35.60;99106.69;5091449;28;20028;-48
2024/03/23 08:46:11;;;;;;;8.10;2.10;;;;;;;17.41;34.17;99107.09;5091771;28;20023;-48
2024/03/23 08:48:43;;;;;;;6.13;2.08;;;;;;;20.57;29.93;99098.50;5095140;28;20032;-47
2024/03/23 08:51:10;;;;;;;8.30;1.65;;;;;;;22.73;25.99;99083.97;5095103;28;20401;-46
2024/03/23 08:53:36;;;;;;;9.63;1.88;;;;;;;23.79;23.88;99085.78;5093862;28;20129;-46
2024/03/23 08:56:03;;;;;;;7.05;1.80;;;;;;;24.72;22.68;99094.72;5095054;28;20574;-46
2024/03/23 08:58:34;;;;;;;6.75;2.65;;;;;;;25.71;21.33;99086.03;5095246;28;20016;-46
2024/03/23 09:01:10;;;;;;;8.40;2.58;;;;;;;26.48;19.77;99087.56;5095184;28;20024;-47
2024/03/23 09:03:36;;;;;;;8.30;2.10;;;;;;;26.88;19.01;99087.97;5093594;28;20501;-45
2024/03/23 09:06:13;;;;;;;11.93;5.65;;;;;;;27.29;19.18;99103.34;5094820;28;20020;-46
2024/03/23 09:08:40;;;;;;;9.00;4.13;;;;;;;27.75;18.55;99095.38;5093460;28;20110;-46
2024/03/23 09:11:07;;;;;;;23.90;17.58;;;;;;;27.83;17.25;99090.06;5094957;28;20444;-45
2024/03/23 09:13:34;;;;;;;5.78;2.97;;;;;;;27.88;17.96;99105.38;5094779;28;20103;-46
2024/03/23 09:15:59;;;;;;;8.80;3.58;;;;;;;28.24;17.45;99089.13;5093393;28;20024;-46
2024/03/23 09:18:25;;;;;;;9.63;3.97;;;;;;;28.28;16.81;99108.19;5093295;28;20028;-46
2024/03/23 09:20:53;;;;;;;6.82;2.78;;;;;;;28.51;16.66;99095.50;5094581;28;20077;-46
2024/03/23 09:23:19;;;;;;;8.68;2.33;;;;;;;28.54;16.93;99089.50;5094486;28;20032;-46
2024/03/23 09:25:45;;;;;;;10.05;2.33;;;;;;;27.89;17.22;99104.28;5094373;28;20020;-46
2024/03/23 09:28:11;;;;;;;7.60;1.92;;;;;;;27.63;17.24;99110.19;5093147;28;20080;-46
2024/03/23 09:30:42;;;;;;;7.32;2.22;;;;;;;27.49;17.31;99106.72;5092819;28;20048;-46
2024/03/23 09:33:08;;;;;;;8.85;1.63;;;;;;;27.81;17.31;99103.06;5094373;28;20024;-47
2024/03/23 09:35:38;;;;;;;5.35;1.88;;;;;;;28.26;16.94;99103.09;5094181;28;20024;-47
2024/03/23 09:38:04;;;;;;;9.98;2.00;;;;;;;28.35;16.88;99096.97;5094213;28;20031;-46
2024/03/23 09:40:29;;;;;;;9.45;2.72;;;;;;;27.51;17.17;99088.34;5094226;28;20048;-46
2024/03/23 09:42:55;;;;;;;4.68;2.70;;;;;;;27.18;17.20;99104.63;5094193;28;20398;-45
2024/03/23 09:45:28;;;;;;;9.32;2.63;;;;;;;26.63;17.54;99105.38;5092838;28;20554;-46
2024/03/23 09:47:55;;;;;;;7.65;2.75;;;;;;;26.25;18.13;99091.97;5094085;28;20024;-46
2024/03/23 09:50:21;;;;;;;7.18;2.10;;;;;;;25.84;18.14;99095.28;5092602;28;20024;-44
2024/03/23 09:52:47;;;;;;;12.88;2.90;;;;;;;25.59;18.61;99096.41;5093965;28;20398;-44
2024/03/23 09:55:16;;;;;;;9.05;1.95;;;;;;;25.64;18.63;99095.56;5092966;28;20157;-44
2024/03/23 09:57:42;;;;;;;7.70;3.28;;;;;;;25.80;18.43;99085.41;5092204;28;20393;-44
2024/03/23 10:00:09;;;;;;;7.00;1.83;;;;;;;25.66;18.38;99090.69;5091887;28;20019;-44
2024/03/23 10:02:35;;;;;;;5.63;1.80;;;;;;;25.88;18.55;99093.59;5093792;28;20012;-45
2024/03/23 10:05:01;;;;;;;6.82;1.85;;;;;;;26.35;18.06;99085.63;5092504;28;20081;-44
2024/03/23 10:07:30;;;;;;;5.85;1.65;;;;;;;26.62;18.17;99086.81;5093670;28;20028;-45
2024/03/23 10:09:56;;;;;;;8.40;2.60;;;;;;;26.79;17.75;99089.75;5092323;28;20529;-45
2024/03/23 10:12:24;;;;;;;7.05;2.22;;;;;;;27.10;18.14;99086.44;5092333;28;20559;-45
2024/03/23 10:14:50;;;;;;;5.80;1.77;;;;;;;27.27;17.39;99081.28;5093507;28;20125;-45
2024/03/23 10:17:17;;;;;;;6.10;1.95;;;;;;;26.16;18.21;99093.75;5093574;28;20024;-44
2024/03/23 10:19:49;;;;;;;7.97;2.10;;;;;;;26.04;18.70;99091.50;5093708;28;20524;-45
2024/03/23 10:22:22;;;;;;;3.83;1.63;;;;;;;27.46;18.26;99089.25;5093496;28;20030;-45
2024/03/23 10:24:49;;;;;;;5.72;2.20;;;;;;;29.01;17.04;99083.66;5092100;28;20405;-46
2024/03/23 10:27:21;;;;;;;5.50;2.25;;;;;;;29.90;16.02;99075.41;5093322;28;20433;-45
2024/03/23 10:29:51;;;;;;;10.60;2.50;;;;;;;28.08;16.34;99087.91;5091720;28;20054;-45
2024/03/23 10:32:18;;;;;;;5.82;1.98;;;;;;;25.84;18.07;99091.78;5093114;28;20114;-45
2024/03/23 10:34:45;;;;;;;5.97;1.98;;;;;;;24.43;19.35;99105.44;5091805;28;20031;-45
2024/03/23 10:37:12;;;;;;;6.45;1.70;;;;;;;23.58;19.53;99095.75;5091919;28;20053;-45
2024/03/23 10:39:39;;;;;;;7.20;1.88;;;;;;;23.19;20.81;99112.53;5091783;28;20065;-45
2024/03/23 10:42:13;;;;;;;8.93;1.85;;;;;;;24.33;19.63;99103.63;5091678;28;20113;-45
2024/03/23 10:44:38;;;;;;;7.78;2.13;;;;;;;25.84;18.65;99081.03;5091690;28;20031;-45
2024/03/23 10:47:05;;;;;;;9.32;2.20;;;;;;;27.06;17.54;99083.59;5091603;28;20486;-45
2024/03/23 10:49:32;;;;;;;6.03;1.83;;;;;;;27.91;16.72;99064.31;5092889;28;20051;-45
2024/03/23 10:52:05;;;;;;;10.70;2.17;;;;;;;27.70;16.99;99066.63;5092767;28;20055;-45
2024/03/23 10:54:35;;;;;;;7.93;2.03;;;;;;;26.45;17.45;99057.75;5092721;28;20080;-45
2024/03/23 10:57:12;;;;;;;7.07;1.77;;;;;;;26.60;17.85;99054.81;5092709;28;20107;-46
2024/03/23 10:59:40;;;;;;;3.85;1.50;;;;;;;27.92;16.82;99047.00;5092762;28;20032;-46
2024/03/23 11:02:09;;;;;;;9.30;2.17;;;;;;;28.69;15.70;99058.56;5091336;28;20119;-46
2024/03/23 11:04:39;;;;;;;12.07;1.80;;;;;;;28.97;15.42;99048.34;5091254;28;20035;-46
2024/03/23 11:07:23;;;;;;;2.72;1.20;;;;;;;29.34;15.23;99037.31;5092521;28;20073;-46
2024/03/23 11:09:51;;;;;;;7.25;1.95;;;;;;;29.71;14.62;99035.13;5091102;28;20035;-46
2024/03/23 11:12:32;;;;;;;5.70;1.70;;;;;;;30.05;14.14;99037.81;5092342;28;20093;-45
2024/03/23 11:15:03;;;;;;;5.45;1.75;;;;;;;30.32;13.93;99035.88;5092429;28;20035;-46
2024/03/23 11:17:29;;;;;;;6.55;1.65;;;;;;;30.00;14.09;99040.72;5092393;28;20028;-46
2024/03/23 11:20:09;;;;;;;5.47;1.50;;;;;;;30.10;13.94;99030.66;5092381;28;20462;-45
2024/03/23 11:22:38;;;;;;;6.55;2.33;;;;;;;29.84;13.90;99023.34;5091447;28;20381;-46
2024/03/23 11:25:20;;;;;;;5.38;1.85;;;;;;;29.79;14.24;99024.31;5092499;28;20031;-45
2024/03/23 11:27:47;;;;;;;4.57;1.60;;;;;;;29.94;13.90;99022.22;5092522;28;20085;-46
2024/03/23 11:30:28;;;;;;;6.90;1.65;;;;;;;30.03;13.85;99021.09;5091966;28;20563;-46
2024/03/23 11:32:55;;;;;;;7.15;1.60;;;;;;;29.40;14.23;99023.34;5092261;28;20032;-46